createdAt,value
2022-09-15T00:00:35.918Z,25.17
2022-09-15T00:02:57.813Z,25.03
2022-09-15T00:05:19.906Z,26.40
2022-09-15T00:07:41.825Z,25.23
2022-09-15T00:10:06.601Z,26.23
2022-09-15T00:12:28.468Z,24.53
2022-09-15T00:14:50.301Z,23.87
2022-09-15T00:17:12.240Z,23.87
2022-09-15T00:19:34.092Z,26.33
2022-09-15T00:21:55.876Z,25.13
2022-09-15T00:24:17.652Z,24.40
2022-09-15T00:26:39.529Z,26.10
2022-09-15T00:29:02.562Z,24.87
2022-09-15T00:31:27.547Z,27.73
2022-09-15T00:33:52.874Z,27.43
2022-09-15T00:36:15.950Z,24.07
2022-09-15T00:38:38.720Z,25.63
2022-09-15T00:41:01.834Z,25.53
2022-09-15T00:43:51.189Z,26.60
2022-09-15T00:46:15.041Z,27.00
2022-09-15T00:48:44.241Z,26.17
2022-09-15T00:51:10.265Z,20.73
2022-09-15T00:53:35.550Z,24.37
2022-09-15T00:55:59.462Z,29.87
2022-09-15T00:58:33.388Z,27.17
2022-09-15T01:01:02.082Z,25.97
2022-09-15T01:03:27.224Z,27.30
2022-09-15T01:05:57.845Z,30.47
2022-09-15T01:08:33.271Z,25.03
2022-09-15T01:10:56.745Z,31.27
2022-09-15T01:13:18.798Z,26.77
2022-09-15T01:15:56.488Z,26.43
2022-09-15T01:18:47.099Z,28.57
2022-09-15T01:21:36.639Z,27.17
2022-09-15T01:24:35.106Z,26.57
2022-09-15T01:27:30.895Z,28.97
2022-09-15T01:30:02.451Z,26.83
2022-09-15T01:33:00.945Z,29.13
2022-09-15T01:36:03.744Z,29.13
2022-09-15T01:39:01.054Z,28.33
2022-09-15T01:41:48.332Z,26.43
2022-09-15T01:44:22.236Z,25.07
2022-09-15T01:46:49.772Z,26.27
2022-09-15T01:49:19.426Z,27.07
2022-09-15T01:51:46.024Z,25.57
2022-09-15T01:54:10.371Z,26.83
2022-09-15T01:56:32.532Z,29.55
2022-09-15T01:58:54.543Z,31.93
2022-09-15T02:01:32.142Z,29.53
2022-09-15T02:04:15.784Z,27.07
2022-09-15T02:07:11.742Z,25.87
2022-09-15T02:09:51.035Z,29.03
2022-09-15T02:12:27.445Z,25.20
2022-09-15T02:15:16.639Z,30.30
2022-09-15T02:17:48.239Z,27.83
2022-09-15T02:20:25.390Z,27.73
2022-09-15T02:22:55.748Z,24.90
2022-09-15T02:25:28.983Z,23.00
2022-09-15T02:27:57.395Z,23.43
2022-09-15T02:30:21.395Z,24.80
2022-09-15T02:32:56.224Z,22.67
2022-09-15T02:35:18.558Z,24.77
2022-09-15T02:37:40.918Z,26.23
2022-09-15T02:40:04.786Z,24.60
2022-09-15T02:42:32.752Z,23.52
2022-09-15T02:44:55.546Z,24.20
2022-09-15T02:47:17.333Z,24.47
2022-09-15T02:49:39.151Z,24.47
2022-09-15T02:52:00.986Z,21.13
2022-09-15T02:54:22.766Z,23.87
2022-09-15T02:56:45.148Z,24.40
2022-09-15T02:59:07.753Z,24.00
2022-09-15T03:01:32.239Z,22.50
2022-09-15T03:06:18.521Z,22.63
2022-09-15T03:11:02.003Z,23.33
2022-09-15T03:13:24.017Z,24.93
2022-09-15T03:15:45.836Z,26.67
2022-09-15T03:18:07.672Z,21.70
2022-09-15T03:20:30.315Z,23.43
2022-09-15T03:22:52.139Z,24.47
2022-09-15T03:25:14.182Z,20.83
2022-09-15T03:27:36.581Z,25.70
2022-09-15T03:29:58.621Z,24.07
2022-09-15T03:32:20.383Z,24.87
2022-09-15T03:34:42.448Z,21.83
2022-09-15T03:37:04.455Z,24.03
2022-09-15T03:39:26.525Z,25.17
2022-09-15T03:41:48.288Z,24.33
2022-09-15T03:44:10.112Z,22.13
2022-09-15T03:46:32.146Z,24.37
2022-09-15T03:48:53.915Z,22.03
2022-09-15T03:51:15.837Z,22.60
2022-09-15T03:53:41.991Z,24.13
2022-09-15T03:56:18.350Z,25.87
2022-09-15T03:58:40.195Z,24.70
2022-09-15T04:01:02.014Z,21.60
2022-09-15T04:03:23.920Z,20.03
2022-09-15T04:05:45.700Z,20.30
2022-09-15T04:08:09.497Z,23.33
2022-09-15T04:10:31.752Z,20.15
2022-09-15T04:12:54.227Z,24.37
2022-09-15T04:15:16.150Z,23.00
2022-09-15T04:17:37.953Z,19.03
2022-09-15T04:20:01.255Z,20.20
2022-09-15T04:22:23.126Z,18.80
2022-09-15T04:24:45.132Z,20.27
2022-09-15T04:27:07.169Z,18.67
2022-09-15T04:29:28.989Z,19.70
2022-09-15T04:31:53.021Z,19.70
2022-09-15T04:34:14.900Z,19.23
2022-09-15T04:36:37.324Z,18.50
2022-09-15T04:38:59.239Z,18.33
2022-09-15T04:41:22.131Z,18.17
2022-09-15T04:43:44.320Z,15.80
2022-09-15T04:46:08.432Z,19.47
2022-09-15T04:48:31.821Z,19.92
2022-09-15T04:50:54.727Z,19.73
2022-09-15T04:53:17.320Z,20.87
2022-09-15T04:55:39.504Z,16.37
2022-09-15T04:58:02.703Z,19.27
2022-09-15T05:00:27.085Z,20.63
2022-09-15T05:02:49.035Z,18.58
2022-09-15T05:05:10.834Z,18.53
2022-09-15T05:07:32.687Z,18.23
2022-09-15T05:09:54.654Z,22.00
2022-09-15T05:12:17.440Z,20.17
2022-09-15T05:14:39.278Z,18.33
2022-09-15T05:17:01.267Z,19.07
2022-09-15T05:19:23.545Z,19.63
2022-09-15T05:21:45.444Z,16.00
2022-09-15T05:24:07.493Z,15.67
2022-09-15T05:26:30.106Z,16.37
2022-09-15T05:28:52.460Z,21.63
2022-09-15T05:31:27.978Z,19.37
2022-09-15T05:33:52.723Z,22.57
2022-09-15T05:36:15.860Z,20.63
2022-09-15T05:38:37.811Z,18.00
2022-09-15T05:41:04.471Z,22.10
2022-09-15T05:43:26.405Z,17.53
2022-09-15T05:45:55.224Z,20.13
2022-09-15T05:48:17.015Z,18.63
2022-09-15T05:50:39.578Z,20.07
2022-09-15T05:53:01.373Z,24.37
2022-09-15T05:55:23.221Z,18.83
2022-09-15T05:57:44.980Z,20.07
2022-09-15T06:00:07.899Z,20.13
2022-09-15T06:02:33.830Z,20.17
2022-09-15T06:04:55.631Z,20.10
2022-09-15T06:07:17.503Z,17.67
2022-09-15T06:09:39.488Z,20.37
2022-09-15T06:12:01.531Z,19.10
2022-09-15T06:14:23.950Z,18.67
2022-09-15T06:16:45.899Z,17.60
2022-09-15T06:19:07.784Z,16.43
2022-09-15T06:21:31.455Z,17.97
2022-09-15T06:23:55.569Z,17.42
2022-09-15T06:26:19.342Z,16.52
2022-09-15T06:28:48.449Z,14.30
2022-09-15T06:31:13.356Z,17.33
2022-09-15T06:33:35.143Z,15.97
2022-09-15T06:35:59.779Z,18.57
2022-09-15T06:38:21.677Z,16.03
2022-09-15T06:40:43.442Z,17.80
2022-09-15T06:43:05.514Z,18.20
2022-09-15T06:45:27.351Z,15.27
2022-09-15T06:48:13.358Z,17.10
2022-09-15T06:50:34.126Z,16.42
2022-09-15T06:52:55.951Z,18.13
2022-09-15T06:55:17.940Z,18.13
2022-09-15T06:57:39.722Z,21.40
2022-09-15T07:00:02.561Z,17.80
2022-09-15T07:02:24.563Z,18.40
2022-09-15T07:04:46.522Z,17.50
2022-09-15T07:07:08.579Z,15.33
2022-09-15T07:09:30.498Z,16.83
2022-09-15T07:11:52.821Z,15.43
2022-09-15T07:14:14.786Z,12.80
2022-09-15T07:16:36.682Z,14.47
2022-09-15T07:19:01.332Z,13.63
2022-09-15T07:23:45.100Z,12.40
2022-09-15T07:26:09.926Z,13.53
2022-09-15T07:28:31.757Z,14.03
2022-09-15T07:30:53.583Z,12.77
2022-09-15T07:33:15.642Z,12.47
2022-09-15T07:35:45.134Z,10.70
2022-09-15T07:38:06.899Z,15.03
2022-09-15T07:40:29.240Z,13.27
2022-09-15T07:42:51.080Z,10.33
2022-09-15T07:45:12.952Z,11.40
2022-09-15T07:47:34.833Z,14.03
2022-09-15T07:49:56.640Z,8.77
2022-09-15T07:52:18.509Z,10.70
2022-09-15T07:54:40.349Z,13.43
2022-09-15T07:57:02.298Z,9.77
2022-09-15T07:59:24.095Z,7.87
2022-09-15T08:01:46.906Z,8.27
2022-09-15T08:04:08.771Z,9.50
2022-09-15T08:06:30.731Z,8.63
2022-09-15T08:08:57.737Z,8.47
2022-09-15T08:11:22.561Z,8.60
2022-09-15T08:13:49.621Z,7.80
2022-09-15T08:16:16.071Z,13.57
2022-09-15T08:18:42.341Z,10.90
2022-09-15T08:21:07.128Z,7.03
2022-09-15T08:23:28.924Z,10.43
2022-09-15T08:25:51.797Z,9.33
2022-09-15T08:28:14.109Z,8.50
2022-09-15T08:30:36.152Z,11.43
2022-09-15T08:32:58.005Z,10.10
2022-09-15T08:35:20.412Z,8.53
2022-09-15T08:37:42.282Z,12.47
2022-09-15T08:40:04.739Z,10.20
2022-09-15T08:42:29.134Z,10.27
2022-09-15T08:44:59.751Z,9.50
2022-09-15T08:47:46.748Z,10.17
2022-09-15T08:50:28.383Z,9.47
2022-09-15T08:53:02.341Z,10.30
2022-09-15T08:55:48.923Z,10.30
2022-09-15T08:58:20.351Z,10.17
2022-09-15T09:00:46.806Z,9.03
2022-09-15T09:04:15.366Z,9.87
2022-09-15T09:07:00.630Z,11.87
2022-09-15T09:09:48.394Z,10.17
2022-09-15T09:12:23.665Z,10.53
2022-09-15T09:15:43.381Z,9.23
2022-09-15T09:18:41.885Z,13.50
2022-09-15T09:21:22.343Z,8.43
2022-09-15T09:23:54.258Z,9.40
2022-09-15T09:26:16.651Z,6.97
2022-09-15T09:29:08.286Z,8.63
2022-09-15T09:31:30.249Z,8.50
2022-09-15T09:34:06.191Z,10.97
2022-09-15T09:36:28.339Z,9.30
2022-09-15T09:38:51.042Z,9.83
2022-09-15T09:41:25.326Z,7.23
2022-09-15T09:43:49.943Z,9.32
2022-09-15T09:46:17.933Z,6.43
2022-09-15T09:48:46.445Z,8.47
2022-09-15T09:51:59.917Z,11.57
2022-09-15T09:54:27.265Z,4.93
2022-09-15T09:56:52.016Z,4.30
2022-09-15T09:59:43.246Z,6.20
2022-09-15T10:02:11.126Z,7.77
2022-09-15T10:04:32.928Z,7.37
2022-09-15T10:06:56.446Z,7.10
2022-09-15T10:09:19.932Z,6.50
2022-09-15T10:11:52.147Z,5.67
2022-09-15T10:14:42.006Z,4.63
2022-09-15T10:17:15.527Z,12.30
2022-09-15T10:19:47.969Z,7.73
2022-09-15T10:22:33.553Z,8.57
2022-09-15T10:24:55.467Z,6.27
2022-09-15T10:27:34.870Z,5.63
2022-09-15T10:30:16.304Z,6.70
2022-09-15T10:32:38.881Z,7.73
2022-09-15T10:35:11.504Z,8.00
2022-09-15T10:38:11.626Z,4.63
2022-09-15T10:40:54.101Z,4.70
2022-09-15T10:43:42.490Z,6.57
2022-09-15T10:46:39.260Z,6.50
2022-09-15T10:49:37.348Z,4.73
2022-09-15T10:52:34.187Z,4.53
2022-09-15T10:55:52.638Z,4.73
2022-09-15T10:58:43.536Z,3.67
2022-09-15T11:01:29.076Z,2.77
2022-09-15T11:04:15.533Z,3.17
2022-09-15T11:06:51.639Z,5.83
2022-09-15T11:09:13.410Z,6.43
2022-09-15T11:11:54.597Z,3.40
2022-09-15T11:14:44.160Z,4.30
2022-09-15T11:17:37.511Z,5.27
2022-09-15T11:20:21.953Z,4.10
2022-09-15T11:22:58.222Z,6.30
2022-09-15T11:25:25.699Z,3.23
2022-09-15T11:27:53.986Z,5.50
2022-09-15T11:30:29.602Z,4.23
2022-09-15T11:33:13.179Z,4.77
2022-09-15T11:35:45.190Z,4.67
2022-09-15T11:38:32.093Z,6.57
2022-09-15T11:41:02.942Z,3.10
2022-09-15T11:43:37.633Z,4.80
2022-09-15T11:46:25.294Z,8.27
2022-09-15T11:49:08.769Z,4.33
2022-09-15T11:51:41.884Z,4.00
2022-09-15T11:54:21.295Z,6.00
2022-09-15T11:56:47.294Z,3.63
2022-09-15T11:59:39.575Z,5.20
2022-09-15T12:02:39.197Z,5.95
2022-09-15T12:05:15.053Z,4.80
2022-09-15T12:07:59.702Z,3.58
2022-09-15T12:10:31.310Z,4.03
2022-09-15T12:12:54.381Z,3.83
2022-09-15T12:15:27.119Z,5.45
2022-09-15T12:18:06.636Z,5.40
2022-09-15T12:20:53.426Z,3.75
2022-09-15T12:23:25.369Z,4.10
2022-09-15T12:26:17.688Z,5.15
2022-09-15T12:28:54.180Z,3.85
2022-09-15T12:31:40.468Z,3.70
2022-09-15T12:34:24.773Z,8.18
2022-09-15T12:36:52.970Z,4.60
2022-09-15T12:39:43.440Z,5.22
2022-09-15T12:42:21.334Z,4.40
2022-09-15T12:44:44.992Z,4.53
2022-09-15T12:47:21.744Z,5.78
2022-09-15T12:49:48.118Z,4.93
2022-09-15T12:52:12.106Z,4.28
2022-09-15T12:54:38.714Z,6.72
2022-09-15T12:57:02.312Z,4.35
2022-09-15T12:59:28.021Z,3.97
2022-09-15T13:01:50.844Z,5.20
2022-09-15T13:04:43.601Z,5.85
2022-09-15T13:07:21.124Z,3.22
2022-09-15T13:09:45.604Z,4.50
2022-09-15T13:14:42.071Z,2.60
2022-09-15T13:17:22.780Z,3.73
2022-09-15T13:19:50.200Z,2.85
2022-09-15T13:22:16.506Z,3.50
2022-09-15T13:25:05.813Z,2.70
2022-09-15T13:27:45.197Z,1.58
2022-09-15T13:30:44.254Z,3.55
2022-09-15T13:40:05.134Z,3.58
2022-09-15T13:43:40.835Z,2.70
2022-09-15T13:46:31.177Z,2.13
2022-09-15T13:48:59.106Z,3.85
2022-09-15T13:51:29.961Z,4.85
2022-09-15T13:54:06.180Z,2.67
2022-09-15T13:56:33.782Z,3.72
2022-09-15T13:59:14.122Z,2.42
2022-09-15T14:01:40.674Z,2.58
2022-09-15T14:04:12.719Z,4.75
2022-09-15T14:06:39.212Z,3.92
2022-09-15T14:09:13.562Z,3.70
2022-09-15T14:11:38.163Z,5.03
2022-09-15T14:14:00.916Z,3.42
2022-09-15T14:16:33.923Z,4.72
2022-09-15T14:18:58.601Z,5.68
2022-09-15T14:23:52.061Z,4.90
2022-09-15T14:26:18.693Z,3.90
2022-09-15T14:28:48.453Z,3.33
2022-09-15T14:31:10.441Z,5.47
2022-09-15T14:33:38.278Z,3.53
2022-09-15T14:36:00.445Z,6.03
2022-09-15T14:38:25.837Z,6.18
2022-09-15T14:40:53.398Z,5.05
2022-09-15T14:43:35.861Z,3.92
2022-09-15T14:46:18.477Z,4.28
2022-09-15T14:48:40.369Z,2.78
2022-09-15T14:51:08.783Z,3.75
2022-09-15T14:53:38.103Z,4.40
2022-09-15T14:56:15.166Z,3.67
2022-09-15T14:58:52.804Z,4.20
2022-09-15T15:01:30.492Z,3.22
2022-09-15T15:04:19.338Z,3.97
2022-09-15T15:06:55.887Z,3.00
2022-09-15T15:09:38.935Z,3.67
2022-09-15T15:12:14.535Z,3.70
2022-09-15T15:14:36.803Z,2.77
2022-09-15T15:17:05.848Z,3.07
2022-09-15T15:19:41.282Z,4.10
2022-09-15T15:22:13.984Z,3.90
2022-09-15T15:24:42.962Z,3.53
2022-09-15T15:27:33.241Z,2.73
2022-09-15T15:29:55.086Z,3.07
2022-09-15T15:32:22.275Z,2.90
2022-09-15T15:34:53.665Z,2.93
2022-09-15T15:37:27.589Z,3.03
2022-09-15T15:39:49.704Z,5.80
2022-09-15T15:42:16.237Z,4.00
2022-09-15T15:44:38.161Z,7.30
2022-09-15T15:47:23.776Z,4.30
2022-09-15T15:50:11.880Z,4.90
2022-09-15T15:52:27.366Z,6.17
2022-09-15T15:54:49.123Z,3.83
2022-09-15T15:57:30.310Z,3.40
2022-09-15T15:59:59.421Z,5.43
2022-09-15T16:02:23.497Z,3.53
2022-09-15T16:04:45.324Z,4.60
2022-09-15T16:07:16.606Z,4.73
2022-09-15T16:09:38.896Z,5.57
2022-09-15T16:12:00.926Z,5.20
2022-09-15T16:14:22.962Z,5.23
2022-09-15T16:16:45.017Z,5.90
2022-09-15T16:19:07.861Z,3.20
2022-09-15T16:21:38.812Z,5.17
2022-09-15T16:24:00.584Z,4.40
2022-09-15T16:26:24.963Z,5.97
2022-09-15T16:28:46.935Z,3.42
2022-09-15T16:31:13.163Z,5.53
2022-09-15T16:33:38.086Z,5.13
2022-09-15T16:36:06.909Z,4.77
2022-09-15T16:38:28.729Z,4.40
2022-09-15T16:40:51.264Z,3.87
2022-09-15T16:43:16.308Z,3.97
2022-09-15T16:45:40.835Z,4.97
2022-09-15T16:48:04.050Z,4.63
2022-09-15T16:50:26.765Z,4.00
2022-09-15T16:52:48.674Z,5.97
2022-09-15T16:55:27.239Z,5.67
2022-09-15T16:57:49.877Z,6.57
2022-09-15T17:00:12.842Z,6.63
2022-09-15T17:02:34.733Z,3.17
2022-09-15T17:04:56.496Z,5.60
2022-09-15T17:07:18.609Z,3.70
2022-09-15T17:09:40.916Z,6.93
2022-09-15T17:12:04.200Z,3.70
2022-09-15T17:14:26.018Z,3.40
2022-09-15T17:16:52.672Z,3.70
2022-09-15T17:19:14.462Z,3.03
2022-09-15T17:21:36.671Z,5.37
2022-09-15T17:23:58.486Z,6.87
2022-09-15T17:26:28.838Z,5.67
2022-09-15T17:28:52.912Z,3.57
2022-09-15T17:31:20.533Z,5.23
2022-09-15T17:33:43.776Z,5.40
2022-09-15T17:36:05.997Z,3.70
2022-09-15T17:38:28.111Z,3.87
2022-09-15T17:40:51.331Z,3.03
2022-09-15T17:43:23.203Z,4.23
2022-09-15T17:45:45.691Z,4.17
2022-09-15T17:48:07.700Z,3.97
2022-09-15T17:50:33.650Z,4.90
2022-09-15T17:52:56.463Z,4.33
2022-09-15T17:55:27.743Z,5.07
2022-09-15T17:57:50.474Z,5.17
2022-09-15T18:00:14.152Z,2.90
2022-09-15T18:02:36.129Z,4.13
2022-09-15T18:04:58.286Z,4.40
2022-09-15T18:07:20.208Z,5.60
2022-09-15T18:09:42.130Z,5.90
2022-09-15T18:12:04.431Z,4.53
2022-09-15T18:14:26.158Z,3.43
2022-09-15T18:16:48.018Z,6.60
2022-09-15T18:19:09.820Z,8.00
2022-09-15T18:21:31.740Z,6.77
2022-09-15T18:23:53.618Z,4.60
2022-09-15T18:26:15.501Z,5.40
2022-09-15T18:28:37.257Z,4.37
2022-09-15T18:30:59.071Z,3.20
2022-09-15T18:33:24.554Z,6.40
2022-09-15T18:35:49.137Z,4.10
2022-09-15T18:40:33.703Z,6.23
2022-09-15T18:42:56.593Z,5.23
2022-09-15T18:45:19.980Z,5.23
2022-09-15T18:47:44.953Z,5.70
2022-09-15T18:50:07.349Z,4.57
2022-09-15T18:52:29.493Z,3.30
2022-09-15T18:54:52.354Z,3.47
2022-09-15T18:57:14.186Z,4.90
2022-09-15T18:59:36.014Z,5.93
2022-09-15T19:01:57.903Z,3.00
2022-09-15T19:04:19.749Z,6.13
2022-09-15T19:06:41.927Z,4.77
2022-09-15T19:09:03.857Z,4.60
2022-09-15T19:11:28.851Z,3.67
2022-09-15T19:13:53.467Z,7.47
2022-09-15T19:16:15.454Z,4.20
2022-09-15T19:18:37.984Z,5.67
2022-09-15T19:21:11.780Z,4.00
2022-09-15T19:23:35.978Z,3.83
2022-09-15T19:25:57.794Z,3.97
2022-09-15T19:28:19.591Z,5.37
2022-09-15T19:30:41.354Z,3.57
2022-09-15T19:33:03.398Z,6.90
2022-09-15T19:35:25.231Z,6.83
2022-09-15T19:37:47.354Z,10.10
2022-09-15T19:40:13.965Z,6.23
2022-09-15T19:42:38.519Z,5.57
2022-09-15T19:47:22.064Z,3.90
2022-09-15T19:49:44.281Z,5.33
2022-09-15T19:52:06.593Z,5.97
2022-09-15T19:54:30.977Z,6.63
2022-09-15T19:56:53.149Z,3.80
2022-09-15T19:59:15.070Z,6.07
2022-09-15T20:01:37.109Z,2.67
2022-09-15T20:03:59.466Z,3.23
2022-09-15T20:06:22.111Z,2.13
2022-09-15T20:08:45.806Z,5.07
2022-09-15T20:11:09.297Z,4.22
2022-09-15T20:13:31.404Z,3.67
2022-09-15T20:16:02.689Z,4.83
2022-09-15T20:18:25.431Z,4.33
2022-09-15T20:20:47.169Z,3.13
2022-09-15T20:23:09.097Z,6.10
2022-09-15T20:25:30.973Z,4.50
2022-09-15T20:27:52.981Z,4.50
2022-09-15T20:30:14.891Z,4.10
2022-09-15T20:32:36.714Z,4.17
2022-09-15T20:34:58.848Z,3.53
2022-09-15T20:37:22.428Z,3.70
2022-09-15T20:39:47.931Z,3.73
2022-09-15T20:42:09.776Z,2.93
2022-09-15T20:44:31.551Z,4.73
2022-09-15T20:46:53.372Z,3.17
2022-09-15T20:49:15.801Z,4.33
2022-09-15T20:51:37.574Z,3.13
2022-09-15T20:54:02.092Z,2.67
2022-09-15T20:58:55.184Z,4.10
2022-09-15T21:01:24.570Z,4.83
2022-09-15T21:03:47.862Z,4.37
2022-09-15T21:06:14.407Z,3.93
2022-09-15T21:08:37.676Z,3.07
2022-09-15T21:10:59.442Z,3.03
2022-09-15T21:13:24.688Z,2.63
2022-09-15T21:16:02.405Z,4.60
2022-09-15T21:18:35.623Z,3.50
2022-09-15T21:21:10.272Z,3.23
2022-09-15T21:23:40.278Z,3.92
2022-09-15T21:26:07.408Z,4.43
2022-09-15T21:28:30.454Z,3.20
2022-09-15T21:30:53.651Z,3.83
2022-09-15T21:33:15.573Z,4.63
2022-09-15T21:35:37.401Z,5.10
2022-09-15T21:38:00.751Z,3.47
2022-09-15T21:40:22.707Z,5.83
2022-09-15T21:42:44.484Z,6.20
2022-09-15T21:45:07.448Z,8.10
2022-09-15T21:47:30.098Z,4.53
2022-09-15T21:49:51.867Z,6.17
2022-09-15T21:52:13.606Z,4.10
2022-09-15T21:54:35.339Z,5.57
2022-09-15T21:56:57.479Z,4.40
2022-09-15T21:59:19.280Z,3.63
2022-09-15T22:01:41.648Z,4.07
2022-09-15T22:04:10.416Z,4.93
2022-09-15T22:06:35.909Z,4.53
2022-09-15T22:09:00.004Z,4.33
2022-09-15T22:11:23.332Z,6.05
2022-09-15T22:13:45.039Z,5.13
2022-09-15T22:16:17.870Z,7.03
2022-09-15T22:18:41.793Z,7.20
2022-09-15T22:21:22.422Z,5.57
2022-09-15T22:23:46.557Z,6.13
2022-09-15T22:26:16.229Z,5.63
2022-09-15T22:28:39.058Z,5.27
2022-09-15T22:31:03.530Z,4.73
2022-09-15T22:35:47.732Z,6.33
2022-09-15T22:38:09.498Z,4.73
2022-09-15T22:40:31.347Z,4.17
2022-09-15T22:42:53.153Z,6.00
2022-09-15T22:45:15.088Z,4.47
2022-09-15T22:47:36.905Z,5.90
2022-09-15T22:49:58.664Z,5.07
2022-09-15T22:52:21.222Z,4.77
2022-09-15T22:54:43.010Z,5.40
2022-09-15T22:57:05.128Z,3.57
2022-09-15T22:59:27.788Z,5.23
2022-09-15T23:01:49.677Z,5.20
2022-09-15T23:04:11.602Z,5.33
2022-09-15T23:06:34.799Z,4.10
2022-09-15T23:09:00.591Z,6.97
2022-09-15T23:11:24.401Z,5.37
2022-09-15T23:13:46.737Z,6.13
2022-09-15T23:16:09.733Z,4.60
2022-09-15T23:18:32.498Z,4.93
2022-09-15T23:21:09.603Z,6.97
2022-09-15T23:23:31.418Z,7.83
2022-09-15T23:25:53.245Z,4.90
2022-09-15T23:28:14.964Z,6.40
2022-09-15T23:30:38.699Z,4.37
2022-09-15T23:33:00.512Z,6.25
2022-09-15T23:35:22.253Z,5.23
2022-09-15T23:37:44.229Z,6.30
2022-09-15T23:40:06.442Z,6.20
2022-09-15T23:42:28.220Z,5.83
2022-09-15T23:44:50.010Z,7.67
2022-09-15T23:47:11.762Z,5.63
2022-09-15T23:49:33.518Z,5.43
2022-09-15T23:51:55.289Z,5.17
2022-09-15T23:54:17.221Z,3.80
2022-09-15T23:56:39.128Z,5.13
2022-09-15T23:59:00.952Z,5.00
